Time;durP1;ratioP1;P1;durP2;ratioP2;P2;SDS_P1;SDS_P2;PMS_P1;PMS_P2;Temp;Humidity;BMP_temperature;BMP_pressure;BME280_temperature;BME280_humidity;BME280_pressure;Samples;Min_cycle;Max_cycle;Signal;HPM_P1;HPM_P2
2022/02/05 00:02:05;;;;;;;3.28;1.30;;;5.00;99.90;;;;;;5047033;28;20193;-85
2022/02/05 00:04:51;;;;;;;8.25;1.38;;;5.00;99.90;;;;;;5050062;28;20225;-85
2022/02/05 00:07:41;;;;;;;5.75;1.15;;;4.90;99.90;;;;;;5047611;28;20208;-85
2022/02/05 00:11:01;;;;;;;5.32;1.35;;;4.80;99.90;;;;;;5040515;28;20228;-85
2022/02/05 00:20:32;;;;;;;4.63;1.20;;;4.90;99.90;;;;;;5046201;28;20312;-85
2022/02/05 00:38:53;;;;;;;4.78;1.30;;;4.80;99.90;;;;;;5038713;28;20239;-85
2022/02/05 00:41:52;;;;;;;4.72;1.38;;;4.70;99.90;;;;;;5051790;28;20200;-85
2022/02/05 00:44:38;;;;;;;2.47;1.35;;;4.70;99.90;;;;;;5047603;28;20201;-84
2022/02/05 00:47:25;;;;;;;7.68;1.40;;;4.70;99.90;;;;;;5049798;28;20578;-85
2022/02/05 00:50:17;;;;;;;5.05;1.25;;;4.60;99.90;;;;;;5041682;28;20224;-86
2022/02/05 00:53:10;;;;;;;1.80;1.20;;;4.60;99.90;;;;;;5058348;28;20204;-86
2022/02/05 00:56:03;;;;;;;2.72;1.40;;;4.50;99.90;;;;;;5049883;28;20200;-85
2022/02/05 00:58:49;;;;;;;3.50;1.40;;;4.50;99.90;;;;;;5045389;28;20207;-85
2022/02/05 01:01:35;;;;;;;2.08;1.30;;;4.40;99.90;;;;;;5057003;28;20235;-86
2022/02/05 01:04:21;;;;;;;4.13;1.40;;;4.40;99.90;;;;;;5054991;28;20584;-85
2022/02/05 01:07:07;;;;;;;2.55;1.40;;;4.30;99.90;;;;;;5052978;28;20209;-85
2022/02/05 01:09:54;;;;;;;2.72;1.40;;;4.20;99.90;;;;;;5047208;28;20224;-85
2022/02/05 01:12:43;;;;;;;4.88;1.23;;;4.10;99.90;;;;;;5049763;28;20201;-85
2022/02/05 01:15:35;;;;;;;1.70;1.20;;;3.90;99.90;;;;;;5051684;28;20620;-86
2022/02/05 01:18:22;;;;;;;1.70;1.17;;;3.80;99.90;;;;;;5048610;28;20263;-85
2022/02/05 01:21:16;;;;;;;3.33;1.85;;;3.80;99.90;;;;;;5052281;28;20340;-86
2022/02/05 01:24:05;;;;;;;4.38;1.58;;;3.80;99.90;;;;;;5051071;28;20198;-85
2022/02/05 01:26:58;;;;;;;6.00;1.90;;;3.70;99.90;;;;;;5049711;28;20736;-85
2022/02/05 01:30:01;;;;;;;3.05;1.83;;;3.70;99.90;;;;;;5049960;28;20351;-85
2022/02/05 01:32:56;;;;;;;4.45;2.00;;;3.70;99.90;;;;;;5050153;28;20201;-86
2022/02/05 01:35:49;;;;;;;5.35;1.50;;;3.70;99.90;;;;;;5054193;28;20689;-85
2022/02/05 01:51:03;;;;;;;5.82;1.67;;;3.40;99.90;;;;;;5052265;28;20289;-85
2022/02/05 01:54:13;;;;;;;3.83;1.90;;;3.50;99.90;;;;;;5049592;28;20196;-85
2022/02/05 01:57:02;;;;;;;4.03;2.22;;;3.50;99.90;;;;;;5047618;28;21157;-85
2022/02/05 02:04:45;;;;;;;4.97;1.60;;;3.60;99.90;;;;;;5048987;28;20298;-85
2022/02/05 02:06:14;;;;;;;7.32;1.75;;;3.60;99.90;;;;;;5025560;28;20229;-85
2022/02/05 02:12:07;;;;;;;5.05;1.52;;;3.60;99.90;;;;;;5051017;28;20246;-86
2022/02/05 02:15:01;;;;;;;4.00;1.60;;;3.50;99.90;;;;;;5055680;28;20220;-85
2022/02/05 02:18:12;;;;;;;3.22;1.85;;;3.50;99.90;;;;;;5048033;28;20620;-86
2022/02/05 02:21:15;;;;;;;3.47;1.92;;;3.50;99.90;;;;;;5053054;28;20224;-86
2022/02/05 02:24:09;;;;;;;3.63;2.15;;;3.50;99.90;;;;;;5054349;28;20200;-86
2022/02/05 02:27:09;;;;;;;4.53;1.60;;;3.50;99.90;;;;;;5049920;28;20231;-86
2022/02/05 02:30:03;;;;;;;3.60;1.92;;;3.50;99.90;;;;;;5050986;28;20635;-86
2022/02/05 02:32:55;;;;;;;4.63;1.83;;;3.50;99.90;;;;;;5051409;28;20288;-85
2022/02/05 02:35:45;;;;;;;4.43;1.77;;;3.50;99.90;;;;;;5050574;28;20244;-85
2022/02/05 02:38:39;;;;;;;3.95;1.98;;;3.50;99.90;;;;;;5044162;28;20294;-85
2022/02/05 02:41:30;;;;;;;4.50;2.08;;;3.40;99.90;;;;;;5049108;28;20209;-86
2022/02/05 02:44:16;;;;;;;5.15;2.17;;;3.40;99.90;;;;;;5049926;28;20192;-85
2022/02/05 02:47:02;;;;;;;8.25;2.80;;;3.50;99.90;;;;;;5046596;28;20200;-86
2022/02/05 02:49:55;;;;;;;6.15;2.33;;;3.60;99.90;;;;;;5049466;28;20232;-85
2022/02/05 02:58:50;;;;;;;10.23;2.38;;;3.50;99.90;;;;;;5048787;28;20288;-86
2022/02/05 03:01:41;;;;;;;6.25;2.40;;;3.50;99.90;;;;;;5052313;28;20778;-85
2022/02/05 03:04:27;;;;;;;11.63;2.90;;;3.50;99.90;;;;;;5050628;28;20279;-86
2022/02/05 03:07:12;;;;;;;4.28;2.47;;;3.50;99.90;;;;;;5045087;28;20673;-85
2022/02/05 03:09:58;;;;;;;5.28;2.85;;;3.50;99.90;;;;;;5050718;28;20260;-85
2022/02/05 03:12:44;;;;;;;6.82;2.28;;;3.50;99.90;;;;;;5054932;28;20197;-86
2022/02/05 03:15:37;;;;;;;12.90;3.60;;;3.50;99.90;;;;;;5053373;28;20290;-86
2022/02/05 03:18:30;;;;;;;4.07;2.40;;;3.40;99.90;;;;;;5050640;28;20197;-86
2022/02/05 03:21:16;;;;;;;7.03;3.10;;;3.40;99.90;;;;;;5050889;28;20637;-86
2022/02/05 03:24:02;;;;;;;5.47;2.55;;;3.30;99.90;;;;;;5050374;28;20201;-85
2022/02/05 03:26:48;;;;;;;4.93;2.70;;;3.20;99.90;;;;;;5046021;28;20204;-85
2022/02/05 03:29:34;;;;;;;7.00;2.85;;;3.20;99.90;;;;;;5050564;28;20275;-85
2022/02/05 03:32:24;;;;;;;5.57;2.95;;;3.20;99.90;;;;;;5051411;28;20208;-86
2022/02/05 03:35:10;;;;;;;4.85;3.00;;;3.30;99.90;;;;;;5048749;28;20213;-85
2022/02/05 03:37:55;;;;;;;6.82;3.30;;;3.30;99.90;;;;;;5049178;28;20196;-86
2022/02/05 03:40:41;;;;;;;6.38;2.47;;;3.30;99.90;;;;;;5052479;28;20603;-84
2022/02/05 03:43:27;;;;;;;8.13;3.30;;;3.30;99.90;;;;;;5048972;28;20204;-86
2022/02/05 03:46:13;;;;;;;5.20;2.80;;;3.20;99.90;;;;;;5047420;28;20332;-86
2022/02/05 03:49:00;;;;;;;4.32;2.85;;;3.10;99.90;;;;;;5050519;28;20341;-85
2022/02/05 03:51:46;;;;;;;5.45;2.72;;;3.10;99.90;;;;;;5053786;28;20205;-86
2022/02/05 03:54:33;;;;;;;5.80;3.65;;;3.10;99.90;;;;;;5051005;28;20205;-85
2022/02/05 03:57:19;;;;;;;3.60;2.58;;;3.10;99.90;;;;;;5046619;28;20236;-85
2022/02/05 04:00:07;;;;;;;6.38;3.05;;;3.10;99.90;;;;;;5051814;28;20241;-86
2022/02/05 04:02:53;;;;;;;6.20;2.80;;;3.20;99.90;;;;;;5052059;28;20625;-86
2022/02/05 04:05:40;;;;;;;6.90;2.92;;;3.10;99.90;;;;;;5045446;28;20263;-86
2022/02/05 04:08:26;;;;;;;11.27;2.97;;;3.10;99.90;;;;;;5046776;28;20228;-86
2022/02/05 04:11:26;;;;;;;6.03;3.08;;;3.10;99.90;;;;;;5053491;28;20224;-86
2022/02/05 04:17:15;;;;;;;7.82;3.25;;;3.00;99.90;;;;;;5046829;28;20196;-86
2022/02/05 04:20:01;;;;;;;5.75;3.42;;;2.90;99.90;;;;;;5052238;28;20229;-86
2022/02/05 04:22:48;;;;;;;4.38;3.08;;;2.90;99.90;;;;;;5046687;28;20201;-85
2022/02/05 04:25:34;;;;;;;8.75;3.63;;;2.90;99.90;;;;;;5046503;28;20213;-86
2022/02/05 04:28:20;;;;;;;7.18;3.42;;;2.80;99.90;;;;;;5050637;28;20219;-86
2022/02/05 04:31:06;;;;;;;5.47;3.72;;;2.90;99.90;;;;;;5045944;28;21223;-85
2022/02/05 04:33:52;;;;;;;5.45;3.60;;;2.80;99.90;;;;;;5056390;28;20221;-85
2022/02/05 04:36:39;;;;;;;5.05;3.45;;;2.90;99.90;;;;;;5050031;28;20303;-86
2022/02/05 04:39:26;;;;;;;7.43;4.45;;;2.90;99.90;;;;;;5055361;28;20220;-86
2022/02/05 04:42:18;;;;;;;9.57;4.35;;;2.90;99.90;;;;;;5060758;28;20195;-86
2022/02/05 04:45:27;;;;;;;10.57;4.47;;;3.00;99.90;;;;;;5053160;28;20206;-85
2022/02/05 04:48:41;;;;;;;4.75;3.40;;;3.10;99.90;;;;;;5053318;28;20197;-86
2022/02/05 04:51:59;;;;;;;8.82;3.95;;;3.00;99.90;;;;;;5052667;28;20279;-85
2022/02/05 04:55:15;;;;;;;5.75;3.63;;;3.10;99.90;;;;;;5052720;28;20204;-86
2022/02/05 04:58:12;;;;;;;9.35;4.07;;;3.10;99.90;;;;;;5053404;28;20828;-86
2022/02/05 05:01:13;;;;;;;6.80;3.40;;;3.20;99.90;;;;;;5052952;28;20216;-85
2022/02/05 05:04:07;;;;;;;6.85;3.85;;;3.30;99.90;;;;;;5051729;28;20196;-85
2022/02/05 05:09:59;;;;;;;6.25;3.67;;;3.30;99.90;;;;;;5052941;28;20228;-86
2022/02/05 05:12:53;;;;;;;10.45;4.35;;;3.30;99.90;;;;;;5053240;28;20243;-86
2022/02/05 05:19:12;;;;;;;6.18;4.13;;;3.30;99.90;;;;;;5048455;28;20196;-86
2022/02/05 05:21:55;;;;;;;8.10;4.22;;;3.40;99.90;;;;;;5042787;28;20192;-86
2022/02/05 05:24:41;;;;;;;9.93;5.10;;;3.50;99.90;;;;;;5051608;28;20208;-85
2022/02/05 05:27:29;;;;;;;9.90;6.15;;;3.50;99.90;;;;;;5055515;28;20577;-86
2022/02/05 05:30:15;;;;;;;12.90;4.85;;;3.50;99.90;;;;;;5054732;28;20627;-86
2022/02/05 05:33:01;;;;;;;8.32;3.63;;;3.50;99.90;;;;;;5057258;28;20639;-85
2022/02/05 05:35:46;;;;;;;5.82;3.60;;;3.40;99.90;;;;;;5050577;28;20213;-85
2022/02/05 05:38:32;;;;;;;7.10;3.95;;;3.40;99.90;;;;;;5051703;28;20607;-85
2022/02/05 05:41:18;;;;;;;11.85;5.00;;;3.40;99.90;;;;;;5053979;28;20336;-85
2022/02/05 05:44:24;;;;;;;11.23;4.60;;;3.40;99.90;;;;;;5047490;28;20196;-85
2022/02/05 05:47:35;;;;;;;7.47;3.92;;;3.40;99.90;;;;;;5049301;28;20196;-86
2022/02/05 05:53:20;;;;;;;7.55;5.50;;;3.40;99.90;;;;;;5052592;28;20264;-85
2022/02/05 05:56:07;;;;;;;6.72;4.03;;;3.40;99.90;;;;;;5049013;28;20314;-85
2022/02/05 05:58:53;;;;;;;11.30;4.22;;;3.30;99.90;;;;;;5048294;28;20339;-85
2022/02/05 06:01:40;;;;;;;8.25;4.82;;;3.30;99.90;;;;;;5053901;28;20276;-85
2022/02/05 06:04:26;;;;;;;12.10;5.47;;;3.30;99.90;;;;;;5049210;28;20209;-85
2022/02/05 06:07:11;;;;;;;9.90;5.72;;;3.30;99.90;;;;;;5048862;28;20312;-86
2022/02/05 06:09:57;;;;;;;7.97;5.05;;;3.30;99.90;;;;;;5050854;28;20291;-86
2022/02/05 06:12:43;;;;;;;9.52;5.30;;;3.30;99.90;;;;;;5050899;28;20328;-86
2022/02/05 06:15:28;;;;;;;10.00;4.97;;;3.30;99.90;;;;;;5049487;28;20324;-85
2022/02/05 06:18:15;;;;;;;10.20;4.43;;;3.30;99.90;;;;;;5052490;28;20197;-86
2022/02/05 06:21:01;;;;;;;12.38;5.55;;;3.30;99.90;;;;;;5048129;28;20609;-85
2022/02/05 06:23:47;;;;;;;8.13;5.45;;;3.40;99.90;;;;;;5050782;28;20681;-86
2022/02/05 06:26:32;;;;;;;10.07;5.68;;;3.50;99.90;;;;;;5055945;28;20276;-86
2022/02/05 06:29:18;;;;;;;7.57;5.18;;;3.60;99.90;;;;;;5047967;28;20220;-86
2022/02/05 06:32:05;;;;;;;13.07;5.05;;;3.60;99.90;;;;;;5048850;28;20208;-86
2022/02/05 06:34:52;;;;;;;7.82;4.90;;;3.70;99.90;;;;;;5049711;28;20223;-86
2022/02/05 06:37:38;;;;;;;10.48;5.75;;;3.70;99.90;;;;;;5050942;28;20748;-86
2022/02/05 06:40:24;;;;;;;17.77;5.68;;;3.80;99.90;;;;;;5055065;28;20283;-86
2022/02/05 06:43:10;;;;;;;10.93;5.55;;;3.80;99.90;;;;;;5047930;28;20192;-86
2022/02/05 06:45:55;;;;;;;9.95;5.05;;;3.80;99.90;;;;;;5049597;28;20240;-86
2022/02/05 06:48:41;;;;;;;12.05;6.20;;;3.90;99.90;;;;;;5048405;28;20200;-85
2022/02/05 06:51:28;;;;;;;16.10;5.93;;;3.90;99.90;;;;;;5050157;28;20730;-86
2022/02/05 06:54:13;;;;;;;11.57;6.03;;;3.80;99.90;;;;;;5047576;28;20208;-85
2022/02/05 06:56:59;;;;;;;8.57;4.97;;;3.90;99.90;;;;;;5048986;28;20307;-86
2022/02/05 06:59:45;;;;;;;7.63;5.15;;;3.90;99.90;;;;;;5055128;28;20236;-86
2022/02/05 07:02:31;;;;;;;9.65;5.70;;;4.00;99.90;;;;;;5052884;28;20201;-85
2022/02/05 07:05:17;;;;;;;9.35;5.75;;;4.10;99.90;;;;;;5054065;28;20195;-86
2022/02/05 07:08:05;;;;;;;11.18;5.22;;;4.20;99.90;;;;;;5051787;28;20320;-87
2022/02/05 07:10:51;;;;;;;7.15;4.93;;;4.20;99.90;;;;;;5052195;28;20364;-87
2022/02/05 07:13:38;;;;;;;13.05;6.97;;;4.30;99.90;;;;;;5046848;28;20282;-85
2022/02/05 07:16:27;;;;;;;10.65;5.35;;;4.30;99.90;;;;;;5044918;28;21946;-88
2022/02/05 07:19:22;;;;;;;12.15;5.45;;;4.30;99.90;;;;;;5050650;28;20193;-86
2022/02/05 07:22:07;;;;;;;11.18;4.97;;;4.30;99.90;;;;;;5051851;28;20204;-86
2022/02/05 07:29:12;;;;;;;10.95;5.45;;;4.30;99.90;;;;;;5053514;28;20207;-84
2022/02/05 07:31:14;;;;;;;8.43;4.82;;;4.30;99.90;;;;;;5055560;28;20227;-86
2022/02/05 07:34:01;;;;;;;15.00;5.45;;;4.30;99.90;;;;;;5044882;28;20968;-85
2022/02/05 07:36:48;;;;;;;7.65;4.75;;;4.30;99.90;;;;;;5046116;28;20652;-86
2022/02/05 07:39:39;;;;;;;9.80;5.40;;;4.40;99.90;;;;;;5042844;28;20228;-86
2022/02/05 07:42:26;;;;;;;9.23;4.82;;;4.40;99.90;;;;;;5045889;28;20267;-85
2022/02/05 07:45:12;;;;;;;10.75;5.65;;;4.50;99.90;;;;;;5052203;28;20209;-85
2022/02/05 07:47:58;;;;;;;9.05;5.30;;;4.50;99.90;;;;;;5051267;28;20216;-85
2022/02/05 07:50:44;;;;;;;10.32;5.95;;;4.50;99.90;;;;;;5052790;28;20279;-85
2022/02/05 07:53:31;;;;;;;10.27;5.82;;;4.50;99.90;;;;;;5043421;28;20670;-86
2022/02/05 07:56:17;;;;;;;6.65;5.35;;;4.60;99.90;;;;;;5052300;28;20207;-85
2022/02/05 07:59:05;;;;;;;8.90;6.35;;;4.60;99.90;;;;;;5052250;28;20271;-86
2022/02/05 08:01:50;;;;;;;11.65;5.80;;;4.50;99.90;;;;;;5053175;28;20205;-86
2022/02/05 08:04:36;;;;;;;10.25;5.85;;;4.50;99.90;;;;;;5048083;28;20270;-86
2022/02/05 08:07:22;;;;;;;7.18;5.47;;;4.60;99.90;;;;;;5051949;28;20833;-86
2022/02/05 08:10:09;;;;;;;11.23;5.72;;;4.60;99.90;;;;;;5052952;28;20227;-85
2022/02/05 08:12:57;;;;;;;13.00;6.00;;;4.70;99.90;;;;;;5055934;22;20230;-72
2022/02/05 08:15:51;;;;;;;8.30;5.22;;;4.80;99.90;;;;;;5048962;28;20228;-70
2022/02/05 08:18:38;;;;;;;12.80;4.88;;;4.80;99.90;;;;;;5037489;28;20264;-72
2022/02/05 08:21:24;;;;;;;10.55;5.90;;;4.90;99.90;;;;;;5049603;28;20253;-72
2022/02/05 08:24:09;;;;;;;9.20;6.40;;;5.00;99.90;;;;;;5050159;28;20326;-72
2022/02/05 08:26:55;;;;;;;9.43;4.85;;;5.00;99.90;;;;;;5047798;28;20200;-72
2022/02/05 08:29:47;;;;;;;12.48;5.00;;;5.10;99.90;;;;;;5049523;28;20220;-72
2022/02/05 08:32:34;;;;;;;11.18;5.45;;;5.10;99.90;;;;;;5046496;28;20209;-72
2022/02/05 08:35:20;;;;;;;7.10;5.05;;;5.20;99.90;;;;;;5049350;28;20336;-72
2022/02/05 08:38:06;;;;;;;10.52;5.50;;;5.20;99.90;;;;;;5047992;28;20271;-72
2022/02/05 08:40:51;;;;;;;7.28;5.00;;;5.30;99.90;;;;;;5042033;28;20214;-73
2022/02/05 08:43:37;;;;;;;5.97;4.45;;;5.30;99.90;;;;;;5044238;28;20263;-72
2022/02/05 08:46:22;;;;;;;11.33;4.87;;;5.40;99.90;;;;;;5049908;28;20232;-72
2022/02/05 08:49:10;;;;;;;10.20;4.70;;;5.40;99.90;;;;;;5047090;28;20394;-72
2022/02/05 08:51:56;;;;;;;12.98;5.07;;;5.60;99.90;;;;;;5046126;28;20967;-72
2022/02/05 08:54:42;;;;;;;9.73;4.35;;;5.60;99.90;;;;;;5047530;28;20322;-72
2022/02/05 08:57:29;;;;;;;12.57;4.90;;;5.50;99.90;;;;;;5050374;28;20924;-72
2022/02/05 09:00:23;;;;;;;10.80;4.50;;;5.40;99.90;;;;;;5047945;28;21519;-73
2022/02/05 09:03:12;;;;;;;7.40;4.53;;;5.40;99.90;;;;;;5050598;28;20204;-72
2022/02/05 09:06:02;;;;;;;7.47;3.92;;;5.60;99.90;;;;;;5044841;28;20435;-72
2022/02/05 09:08:51;;;;;;;10.00;4.40;;;5.70;99.90;;;;;;5044582;28;20255;-72
2022/02/05 09:11:42;;;;;;;8.83;4.43;;;5.90;99.90;;;;;;5041758;28;20209;-72
2022/02/05 09:14:34;;;;;;;5.40;3.50;;;6.00;99.90;;;;;;5049379;28;20954;-72
2022/02/05 09:17:19;;;;;;;7.45;3.92;;;6.10;99.90;;;;;;5050576;28;20494;-72
2022/02/05 09:20:06;;;;;;;7.30;4.27;;;6.20;99.90;;;;;;5050140;28;23046;-72
2022/02/05 09:22:54;;;;;;;13.65;3.85;;;6.30;99.90;;;;;;5053399;28;20425;-72
2022/02/05 09:25:42;;;;;;;6.60;3.20;;;6.40;99.90;;;;;;5052531;28;20221;-72
2022/02/05 09:28:29;;;;;;;7.35;3.72;;;6.10;99.90;;;;;;5047352;28;20247;-72
2022/02/05 09:34:14;;;;;;;6.80;2.80;;;6.10;99.90;;;;;;5054127;28;20196;-72
2022/02/05 09:37:00;;;;;;;7.07;3.33;;;6.10;99.90;;;;;;5049553;28;20435;-72
2022/02/05 09:39:47;;;;;;;10.93;3.35;;;6.10;99.90;;;;;;5051645;28;23381;-72
2022/02/05 09:42:32;;;;;;;8.50;4.10;;;6.20;99.90;;;;;;5051664;28;20219;-72
2022/02/05 09:45:20;;;;;;;9.23;4.60;;;6.20;99.90;;;;;;5053545;28;20221;-72
2022/02/05 09:48:06;;;;;;;9.32;3.47;;;6.30;99.90;;;;;;5052048;28;20320;-72
2022/02/05 09:50:52;;;;;;;12.00;3.13;;;6.40;99.90;;;;;;5044721;28;20205;-72
2022/02/05 09:53:38;;;;;;;5.85;3.00;;;6.40;99.90;;;;;;5049244;28;20197;-73
2022/02/05 09:56:26;;;;;;;7.80;3.50;;;6.40;99.90;;;;;;5050607;28;20234;-72
2022/02/05 09:59:11;;;;;;;4.90;2.80;;;6.40;99.90;;;;;;5046100;28;20432;-73
2022/02/05 10:02:20;;;;;;;11.30;3.70;;;6.30;99.90;;;;;;5047508;28;20395;-72
2022/02/05 10:05:10;;;;;;;15.90;4.43;;;6.20;99.90;;;;;;5049197;28;20964;-72
2022/02/05 10:07:56;;;;;;;16.42;4.20;;;6.20;99.90;;;;;;5051611;28;20427;-72
2022/02/05 10:10:45;;;;;;;9.35;3.58;;;6.20;99.90;;;;;;5051313;28;20216;-72
2022/02/05 10:13:32;;;;;;;8.00;3.67;;;6.20;99.90;;;;;;5050927;28;20213;-72
2022/02/05 10:16:29;;;;;;;11.63;3.70;;;6.20;99.90;;;;;;5048304;28;20224;-72
2022/02/05 10:19:15;;;;;;;8.07;3.57;;;6.30;99.90;;;;;;5052753;28;20435;-72
2022/02/05 10:22:03;;;;;;;5.40;3.40;;;6.40;99.90;;;;;;5051493;28;20424;-72
2022/02/05 10:24:50;;;;;;;6.17;3.17;;;6.40;99.90;;;;;;5046470;28;20469;-72
2022/02/05 10:27:40;;;;;;;6.93;4.13;;;6.40;99.90;;;;;;5044813;28;20428;-72
2022/02/05 10:30:30;;;;;;;8.52;3.97;;;6.50;99.90;;;;;;5049360;28;20217;-72
2022/02/05 10:33:20;;;;;;;17.10;4.47;;;6.40;99.90;;;;;;5051391;28;20287;-72
2022/02/05 10:36:12;;;;;;;11.30;4.83;;;6.20;99.90;;;;;;5053670;28;20802;-72
2022/02/05 10:39:10;;;;;;;8.15;3.92;;;6.00;99.90;;;;;;5047309;28;20519;-71
2022/02/05 10:45:04;;;;;;;8.60;4.57;;;5.80;99.90;;;;;;5048429;28;20505;-72
2022/02/05 10:47:54;;;;;;;13.83;4.50;;;5.70;99.90;;;;;;5045743;28;20201;-72
2022/02/05 10:50:39;;;;;;;10.55;4.57;;;5.70;99.90;;;;;;5050281;28;20591;-72
2022/02/05 10:53:30;;;;;;;9.68;4.88;;;5.70;99.90;;;;;;5052587;28;20204;-72
2022/02/05 10:56:28;;;;;;;7.93;5.05;;;5.70;99.90;;;;;;5048166;28;20299;-72
2022/02/05 10:59:29;;;;;;;15.25;5.82;;;5.70;99.90;;;;;;5049773;28;20209;-72
2022/02/05 11:05:40;;;;;;;11.20;5.45;;;5.70;99.90;;;;;;5025876;28;20249;-72
2022/02/05 11:08:26;;;;;;;10.20;5.28;;;5.70;99.90;;;;;;5018021;28;20948;-72
2022/02/05 11:18:00;;;;;;;15.32;5.10;;;5.70;99.90;;;;;;5034495;28;20196;-72
2022/02/05 11:20:39;;;;;;;11.27;5.53;;;5.70;99.90;;;;;;5046358;28;20724;-72
2022/02/05 11:23:27;;;;;;;10.40;4.80;;;5.70;99.90;;;;;;5050749;28;20948;-72
2022/02/05 11:26:13;;;;;;;7.40;5.40;;;5.80;99.90;;;;;;5046557;28;20221;-72
2022/02/05 11:29:00;;;;;;;12.23;5.32;;;5.90;99.90;;;;;;5048760;28;20201;-72
2022/02/05 11:31:47;;;;;;;12.35;4.30;;;6.00;99.90;;;;;;5050074;28;20224;-72
2022/02/05 11:34:36;;;;;;;14.40;5.00;;;6.00;99.90;;;;;;5044423;28;20258;-72
2022/02/05 11:37:22;;;;;;;17.37;5.47;;;6.10;99.90;;;;;;5044734;28;20209;-72
2022/02/05 11:40:09;;;;;;;12.80;5.35;;;6.20;99.90;;;;;;5048734;28;20475;-72
2022/02/05 11:43:16;;;;;;;20.53;4.70;;;6.20;99.90;;;;;;5047921;28;20328;-72
2022/02/05 11:46:10;;;;;;;11.98;5.00;;;6.20;99.90;;;;;;5051481;28;20961;-72
2022/02/05 11:48:56;;;;;;;13.85;4.72;;;6.30;99.90;;;;;;5043723;28;20193;-72
2022/02/05 11:51:46;;;;;;;9.65;4.63;;;6.30;99.90;;;;;;5047427;28;20212;-72
2022/02/05 11:54:59;;;;;;;11.63;5.18;;;6.30;99.90;;;;;;5051055;28;20232;-72
2022/02/05 11:57:57;;;;;;;9.60;5.07;;;6.30;99.90;;;;;;5050710;28;20216;-72
2022/02/05 12:00:54;;;;;;;10.80;4.70;;;6.30;99.90;;;;;;5049179;28;20473;-72
2022/02/05 12:03:41;;;;;;;10.17;5.20;;;6.30;99.90;;;;;;5045297;28;20449;-72
2022/02/05 12:06:45;;;;;;;13.73;5.00;;;6.30;99.90;;;;;;5050466;28;20513;-72
2022/02/05 12:09:41;;;;;;;8.97;4.73;;;6.30;99.90;;;;;;5046827;28;20435;-72
2022/02/05 12:12:39;;;;;;;13.32;4.75;;;6.30;99.90;;;;;;5048683;28;20553;-72
2022/02/05 12:15:26;;;;;;;10.93;5.03;;;6.30;99.90;;;;;;5043046;28;20595;-72
2022/02/05 12:18:24;;;;;;;13.70;5.20;;;6.40;99.90;;;;;;5048115;28;20921;-72
2022/02/05 12:21:17;;;;;;;10.00;4.87;;;6.40;99.90;;;;;;5048779;28;20416;-72
2022/02/05 12:27:36;;;;;;;11.90;5.20;;;6.50;99.90;;;;;;5048570;28;20473;-73
2022/02/05 12:30:40;;;;;;;9.90;4.90;;;6.70;99.90;;;;;;5050599;28;20422;-72
2022/02/05 12:33:26;;;;;;;19.87;4.57;;;6.80;99.90;;;;;;5050204;28;20419;-72
2022/02/05 12:36:12;;;;;;;11.40;5.23;;;6.90;99.90;;;;;;5044438;28;20805;-72
2022/02/05 12:39:00;;;;;;;11.67;4.93;;;7.00;99.90;;;;;;5048222;28;20513;-72
2022/02/05 12:41:48;;;;;;;10.90;5.00;;;7.00;99.90;;;;;;5051042;28;20494;-72
2022/02/05 12:44:38;;;;;;;10.63;4.80;;;7.00;99.90;;;;;;5042046;28;20448;-72
2022/02/05 12:47:28;;;;;;;10.23;5.03;;;7.00;99.90;;;;;;5048861;28;20443;-72
2022/02/05 12:50:16;;;;;;;11.53;4.73;;;6.90;99.90;;;;;;5046450;28;20428;-72
2022/02/05 12:53:01;;;;;;;13.93;5.03;;;7.00;99.90;;;;;;5047109;28;20490;-72
2022/02/05 12:55:48;;;;;;;16.03;4.70;;;6.90;99.90;;;;;;5054474;28;20443;-72
2022/02/05 12:58:55;;;;;;;9.30;4.83;;;7.00;99.90;;;;;;5041041;28;20473;-72
2022/02/05 13:01:52;;;;;;;9.73;4.20;;;6.80;99.90;;;;;;5053516;28;20519;-72
2022/02/05 13:04:39;;;;;;;8.63;4.33;;;6.80;99.90;;;;;;5053531;28;20486;-72
2022/02/05 13:07:26;;;;;;;11.27;4.60;;;6.80;99.90;;;;;;5051651;28;20451;-72
2022/02/05 13:10:12;;;;;;;9.60;4.80;;;6.90;99.90;;;;;;5054038;28;20448;-72
2022/02/05 13:12:57;;;;;;;9.10;4.40;;;6.90;99.90;;;;;;5054748;28;20436;-72
2022/02/05 13:15:43;;;;;;;11.20;4.97;;;6.90;99.90;;;;;;5052886;28;20442;-72
2022/02/05 13:18:41;;;;;;;6.70;3.90;;;7.00;99.90;;;;;;5051589;28;20466;-72
2022/02/05 13:27:49;;;;;;;11.43;4.20;;;7.10;99.90;;;;;;5033950;28;20513;-72
2022/02/05 13:33:56;;;;;;;15.55;4.05;;;7.00;99.90;;;;;;5051968;28;20440;-72
2022/02/05 13:36:48;;;;;;;15.32;4.72;;;7.00;99.90;;;;;;5044390;28;20280;-72
2022/02/05 13:39:57;;;;;;;15.32;4.32;;;7.00;99.90;;;;;;5052655;28;20193;-72
2022/02/05 13:42:47;;;;;;;9.43;3.90;;;7.00;99.90;;;;;;5053437;28;20275;-72
2022/02/05 13:45:37;;;;;;;6.50;3.27;;;7.00;99.90;;;;;;5045468;28;20885;-72
2022/02/05 13:48:27;;;;;;;15.03;3.97;;;7.00;99.90;;;;;;5047092;28;20490;-72
2022/02/05 13:51:16;;;;;;;10.40;3.40;;;7.10;99.90;;;;;;5053154;28;20655;-72
2022/02/05 13:54:01;;;;;;;9.90;3.03;;;7.10;99.90;;;;;;5050175;28;20496;-72
2022/02/05 13:56:48;;;;;;;11.07;3.80;;;7.20;99.90;;;;;;5045563;28;20458;-72
2022/02/05 13:59:35;;;;;;;8.70;2.80;;;7.20;99.90;;;;;;5048730;28;20448;-72
2022/02/05 14:02:22;;;;;;;8.70;2.30;;;7.30;99.90;;;;;;5051640;28;20469;-72
2022/02/05 14:05:10;;;;;;;4.77;2.47;;;7.30;99.90;;;;;;5050808;28;20825;-71
2022/02/05 14:07:57;;;;;;;7.50;2.37;;;7.30;99.90;;;;;;5043203;28;20786;-72
2022/02/05 14:10:54;;;;;;;3.70;1.70;;;7.30;99.90;;;;;;5045852;28;20937;-72
2022/02/05 14:13:40;;;;;;;9.90;1.83;;;7.20;99.90;;;;;;5045237;28;20506;-72
2022/02/05 14:16:33;;;;;;;5.93;2.27;;;7.20;99.90;;;;;;5049659;28;20497;-72
2022/02/05 14:19:21;;;;;;;5.50;2.23;;;7.20;99.90;;;;;;5050351;28;20467;-72
2022/02/05 14:22:19;;;;;;;4.33;2.43;;;7.30;99.90;;;;;;5049666;28;20508;-72
2022/02/05 14:25:15;;;;;;;5.32;2.50;;;7.20;99.90;;;;;;5041890;28;20808;-72
2022/02/05 14:28:11;;;;;;;6.50;2.30;;;7.20;99.90;;;;;;5050565;28;20197;-72
2022/02/05 14:31:06;;;;;;;3.43;2.07;;;7.20;99.90;;;;;;5049050;28;20911;-72
2022/02/05 14:40:26;;;;;;;3.53;1.98;;;6.90;99.90;;;;;;5042869;28;20277;-72
2022/02/05 14:43:15;;;;;;;4.40;2.53;;;6.90;99.90;;;;;;5041905;28;20245;-72
2022/02/05 14:46:01;;;;;;;9.80;2.13;;;6.90;99.90;;;;;;5050177;28;20471;-72
2022/02/05 14:48:46;;;;;;;11.77;3.25;;;6.90;99.90;;;;;;5049934;28;20427;-72
2022/02/05 14:51:32;;;;;;;6.68;2.50;;;6.90;99.90;;;;;;5044142;28;20626;-72
2022/02/05 14:54:18;;;;;;;8.83;1.87;;;6.80;99.90;;;;;;5043776;28;20620;-72
2022/02/05 14:57:05;;;;;;;10.30;2.87;;;6.80;99.90;;;;;;5045010;28;20703;-72
2022/02/05 14:59:52;;;;;;;6.45;2.70;;;6.80;99.90;;;;;;5046936;28;20928;-72
2022/02/05 15:02:38;;;;;;;6.90;2.63;;;6.80;99.90;;;;;;5048284;28;20193;-72
2022/02/05 15:05:24;;;;;;;14.67;2.90;;;6.80;99.90;;;;;;5048657;28;20592;-72
2022/02/05 15:08:09;;;;;;;5.57;2.30;;;6.80;99.90;;;;;;5048564;28;21083;-72
2022/02/05 15:10:55;;;;;;;6.70;2.67;;;6.70;99.90;;;;;;5052853;28;20431;-72
2022/02/05 15:13:40;;;;;;;4.85;2.75;;;6.70;99.90;;;;;;5050898;28;20566;-72
2022/02/05 15:16:29;;;;;;;6.50;2.30;;;6.60;99.90;;;;;;5047070;28;20224;-72
2022/02/05 15:19:14;;;;;;;6.40;2.60;;;6.70;99.90;;;;;;5050065;28;20809;-71
2022/02/05 15:22:00;;;;;;;6.27;2.60;;;6.70;99.90;;;;;;5041496;28;20524;-71
2022/02/05 15:24:45;;;;;;;9.83;2.90;;;6.80;99.90;;;;;;5048917;28;20501;-72
2022/02/05 15:27:31;;;;;;;8.77;2.38;;;6.80;99.90;;;;;;5051112;28;20416;-72
2022/02/05 15:30:17;;;;;;;5.50;2.30;;;6.80;99.90;;;;;;5043835;28;20220;-72
2022/02/05 15:33:04;;;;;;;6.33;3.20;;;6.80;99.90;;;;;;5049672;28;20575;-72
2022/02/05 15:35:51;;;;;;;14.53;2.13;;;6.90;99.90;;;;;;5042496;28;20598;-72
2022/02/05 15:38:44;;;;;;;4.40;2.40;;;6.90;99.90;;;;;;5050338;28;20941;-72
2022/02/05 15:44:33;;;;;;;5.90;2.47;;;7.00;99.90;;;;;;5045438;28;21265;-72
2022/02/05 15:47:19;;;;;;;8.77;2.40;;;7.00;99.90;;;;;;5050715;28;20424;-72
2022/02/05 15:50:08;;;;;;;5.53;2.70;;;7.00;99.90;;;;;;5039992;28;20422;-72
2022/02/05 15:52:54;;;;;;;6.10;2.63;;;7.00;99.90;;;;;;5044992;28;20443;-72
2022/02/05 15:55:40;;;;;;;3.03;2.23;;;6.90;99.90;;;;;;5038168;28;20802;-72
2022/02/05 15:58:34;;;;;;;5.03;2.93;;;6.90;99.90;;;;;;5051635;28;20872;-72
2022/02/05 16:01:20;;;;;;;6.00;3.37;;;6.90;99.90;;;;;;5046952;28;20422;-72
2022/02/05 16:04:05;;;;;;;9.53;2.70;;;6.90;99.90;;;;;;5049820;28;20822;-72
2022/02/05 16:06:52;;;;;;;10.17;2.40;;;6.90;99.90;;;;;;5051481;28;20443;-72
2022/02/05 16:09:38;;;;;;;10.20;2.57;;;6.80;99.90;;;;;;5048829;28;20394;-72
2022/02/05 16:12:23;;;;;;;6.47;2.55;;;6.80;99.90;;;;;;5049018;28;20466;-72
2022/02/05 16:15:10;;;;;;;5.20;2.30;;;6.80;99.90;;;;;;5038494;28;20214;-72
2022/02/05 16:17:55;;;;;;;7.07;3.00;;;6.80;99.90;;;;;;5045435;28;20444;-72
2022/02/05 16:20:41;;;;;;;9.27;2.42;;;6.70;99.90;;;;;;5044405;28;20387;-72
2022/02/05 16:23:28;;;;;;;5.57;1.70;;;6.70;99.90;;;;;;5042941;28;20725;-72
2022/02/05 16:26:14;;;;;;;7.38;2.33;;;6.70;99.90;;;;;;5049733;28;20220;-72
2022/02/05 16:29:00;;;;;;;6.17;2.40;;;6.70;99.90;;;;;;5043258;28;20271;-72
2022/02/05 16:31:48;;;;;;;9.32;3.13;;;6.60;99.90;;;;;;5049260;28;20815;-72